createdAt,value
2017-03-19T00:00:51.578Z,1001.89
2017-03-19T00:01:52.794Z,1001.89
2017-03-19T00:02:54.053Z,1001.81
2017-03-19T00:03:55.292Z,1001.85
2017-03-19T00:04:56.539Z,1001.81
2017-03-19T00:05:57.797Z,1001.81
2017-03-19T00:06:59.063Z,1001.8
2017-03-19T00:08:00.365Z,1001.83
2017-03-19T00:09:01.627Z,1001.85
2017-03-19T00:10:02.868Z,1001.87
2017-03-19T00:11:04.117Z,1001.89
2017-03-19T00:12:05.346Z,1001.86
2017-03-19T00:13:06.611Z,1001.85
2017-03-19T00:14:07.852Z,1001.82
2017-03-19T00:15:09.096Z,1001.85
2017-03-19T00:16:10.333Z,1001.88
2017-03-19T00:17:11.571Z,1001.88
2017-03-19T00:18:12.820Z,1001.9
2017-03-19T00:19:14.083Z,1001.88
2017-03-19T00:20:15.349Z,1001.91
2017-03-19T00:21:16.605Z,1001.96
2017-03-19T00:22:17.873Z,1001.96
2017-03-19T00:23:19.085Z,1002
2017-03-19T00:24:20.354Z,1002
2017-03-19T00:25:21.574Z,1001.99
2017-03-19T00:26:22.855Z,1001.99
2017-03-19T00:27:24.114Z,1001.99
2017-03-19T00:28:25.402Z,1001.98
2017-03-19T00:29:26.650Z,1001.97
2017-03-19T00:30:27.898Z,1001.96
2017-03-19T00:31:29.138Z,1001.98
2017-03-19T00:32:30.451Z,1002
2017-03-19T00:33:31.777Z,1002
2017-03-19T00:34:32.945Z,1001.98
2017-03-19T00:35:34.205Z,1001.99
2017-03-19T00:36:35.454Z,1001.96
2017-03-19T00:37:36.764Z,1001.92
2017-03-19T00:38:38.025Z,1001.94
2017-03-19T00:39:39.271Z,1001.94
2017-03-19T00:40:40.518Z,1001.99
2017-03-19T00:41:41.789Z,1002
2017-03-19T00:42:43.025Z,1002.02
2017-03-19T00:43:44.289Z,1002.06
2017-03-19T00:44:45.521Z,1002.07
2017-03-19T00:45:46.939Z,1002.1
2017-03-19T00:46:48.217Z,1002.09
2017-03-19T00:47:49.463Z,1002.07
2017-03-19T00:48:50.742Z,1002.09
2017-03-19T00:49:51.948Z,1002.08
2017-03-19T00:50:53.195Z,1002
2017-03-19T00:51:54.454Z,1002
2017-03-19T00:52:55.694Z,1001.91
2017-03-19T00:53:56.930Z,1001.87
2017-03-19T00:54:58.159Z,1001.8
2017-03-19T00:55:59.400Z,1001.74
2017-03-19T00:57:00.863Z,1001.69
2017-03-19T00:58:02.224Z,1001.69
2017-03-19T00:59:03.491Z,1001.62
2017-03-19T01:00:04.661Z,1001.64
2017-03-19T01:01:05.914Z,1001.61
2017-03-19T01:02:07.162Z,1001.59
2017-03-19T01:03:08.524Z,1001.64
2017-03-19T01:04:09.880Z,1001.59
2017-03-19T01:05:11.128Z,1001.61
2017-03-19T01:06:12.388Z,1001.62
2017-03-19T01:07:13.591Z,1001.65
2017-03-19T01:08:14.831Z,1001.66
2017-03-19T01:09:16.093Z,1001.67
2017-03-19T01:10:17.340Z,1001.7
2017-03-19T01:11:18.574Z,1001.68
2017-03-19T01:12:19.873Z,1001.71
2017-03-19T01:13:21.117Z,1001.69
2017-03-19T01:14:22.353Z,1001.66
2017-03-19T01:15:23.589Z,1001.65
2017-03-19T01:16:24.919Z,1001.6
2017-03-19T01:17:26.224Z,1001.58
2017-03-19T01:18:27.502Z,1001.54
2017-03-19T01:19:28.740Z,1001.52
2017-03-19T01:20:29.985Z,1001.48
2017-03-19T01:21:31.213Z,1001.45
2017-03-19T01:22:32.486Z,1001.43
2017-03-19T01:23:33.724Z,1001.42
2017-03-19T01:24:34.966Z,1001.44
2017-03-19T01:25:36.212Z,1001.43
2017-03-19T01:26:37.442Z,1001.37
2017-03-19T01:27:38.672Z,1001.37
2017-03-19T01:28:39.925Z,1001.33
2017-03-19T01:29:41.147Z,1001.34
2017-03-19T01:30:42.597Z,1001.37
2017-03-19T01:31:43.807Z,1001.35
2017-03-19T01:32:45.037Z,1001.33
2017-03-19T01:33:46.285Z,1001.3
2017-03-19T01:34:47.516Z,1001.31
2017-03-19T01:35:48.745Z,1001.31
2017-03-19T01:36:50.060Z,1001.31
2017-03-19T01:37:51.285Z,1001.31
2017-03-19T01:38:52.514Z,1001.34
2017-03-19T01:39:53.750Z,1001.34
2017-03-19T01:40:55.118Z,1001.43
2017-03-19T01:41:56.442Z,1001.47
2017-03-19T01:42:57.683Z,1001.49
2017-03-19T01:43:58.917Z,1001.48
2017-03-19T01:45:00.226Z,1001.47
2017-03-19T01:46:01.469Z,1001.4
2017-03-19T01:47:02.717Z,1001.35
2017-03-19T01:48:04.048Z,1001.3
2017-03-19T01:49:05.306Z,1001.27
2017-03-19T01:50:06.569Z,1001.31
2017-03-19T01:51:07.796Z,1001.32
2017-03-19T01:52:09.059Z,1001.31
2017-03-19T01:53:10.318Z,1001.3
2017-03-19T01:54:11.542Z,1001.35
2017-03-19T01:55:12.851Z,1001.32
2017-03-19T01:56:14.102Z,1001.34
2017-03-19T01:57:15.339Z,1001.3
2017-03-19T01:58:16.573Z,1001.3
2017-03-19T01:59:17.819Z,1001.27
2017-03-19T02:00:19.067Z,1001.21
2017-03-19T02:01:20.384Z,1001.21
2017-03-19T02:02:21.655Z,1001.15
2017-03-19T02:03:22.893Z,1001.14
2017-03-19T02:04:24.157Z,1001.13
2017-03-19T02:05:25.399Z,1001.14
2017-03-19T02:06:26.653Z,1001.09
2017-03-19T02:07:27.916Z,1001.07
2017-03-19T02:08:29.163Z,1001.05
2017-03-19T02:09:30.409Z,1001.01
2017-03-19T02:10:31.654Z,1001.03
2017-03-19T02:11:32.910Z,1001.03
2017-03-19T02:12:34.178Z,1001.03
2017-03-19T02:13:35.411Z,1000.99
2017-03-19T02:14:36.819Z,1000.96
2017-03-19T02:15:38.105Z,1001
2017-03-19T02:16:39.371Z,1000.98
2017-03-19T02:17:40.625Z,1000.97
2017-03-19T02:18:41.870Z,1000.96
2017-03-19T02:19:43.119Z,1000.97
2017-03-19T02:20:44.354Z,1000.95
2017-03-19T02:21:45.612Z,1000.96
2017-03-19T02:22:46.856Z,1000.94
2017-03-19T02:23:48.297Z,1000.94
2017-03-19T02:24:49.544Z,1000.87
2017-03-19T02:25:50.911Z,1000.86
2017-03-19T02:26:52.222Z,1000.85
2017-03-19T02:27:53.479Z,1000.82
2017-03-19T02:28:54.729Z,1000.84
2017-03-19T02:29:55.949Z,1000.84
2017-03-19T02:30:57.291Z,1000.79
2017-03-19T02:31:58.533Z,1000.77
2017-03-19T02:32:59.762Z,1000.76
2017-03-19T02:34:01.024Z,1000.73
2017-03-19T02:35:02.269Z,1000.71
2017-03-19T02:36:03.512Z,1000.72
2017-03-19T02:37:04.874Z,1000.71
2017-03-19T02:38:06.156Z,1000.7
2017-03-19T02:39:07.479Z,1000.67
2017-03-19T02:40:08.720Z,1000.67
2017-03-19T02:41:09.967Z,1000.64
2017-03-19T02:42:11.214Z,1000.62
2017-03-19T02:43:12.505Z,1000.6
2017-03-19T02:44:13.945Z,1000.56
2017-03-19T02:45:15.184Z,1000.57
2017-03-19T02:46:16.405Z,1000.56
2017-03-19T02:47:17.645Z,1000.57
2017-03-19T02:48:18.951Z,1000.56
2017-03-19T02:49:20.288Z,1000.57
2017-03-19T02:50:21.627Z,1000.57
2017-03-19T02:51:22.833Z,1000.57
2017-03-19T02:52:24.072Z,1000.52
2017-03-19T02:53:25.314Z,1000.53
2017-03-19T02:54:26.572Z,1000.48
2017-03-19T02:55:27.813Z,1000.46
2017-03-19T02:56:29.164Z,1000.5
2017-03-19T02:57:30.541Z,1000.49
2017-03-19T02:58:31.778Z,1000.46
2017-03-19T02:59:33.059Z,1000.44
2017-03-19T03:00:34.367Z,1000.45
2017-03-19T03:01:35.597Z,1000.41
2017-03-19T03:02:36.824Z,1000.38
2017-03-19T03:03:38.063Z,1000.42
2017-03-19T03:04:39.290Z,1000.43
2017-03-19T03:05:40.542Z,1000.4
2017-03-19T03:06:41.786Z,1000.4
2017-03-19T03:07:43.107Z,1000.41
2017-03-19T03:08:44.442Z,1000.38
2017-03-19T03:09:45.779Z,1000.44
2017-03-19T03:10:47.015Z,1000.44
2017-03-19T03:11:48.258Z,1000.44
2017-03-19T03:12:49.494Z,1000.45
2017-03-19T03:13:50.753Z,1000.43
2017-03-19T03:14:51.990Z,1000.41
2017-03-19T03:15:53.234Z,1000.44
2017-03-19T03:16:54.503Z,1000.42
2017-03-19T03:17:55.713Z,1000.45
2017-03-19T03:18:56.952Z,1000.43
2017-03-19T03:19:58.206Z,1000.44
2017-03-19T03:20:59.455Z,1000.43
2017-03-19T03:22:00.821Z,1000.47
2017-03-19T03:23:02.133Z,1000.47
2017-03-19T03:24:03.364Z,1000.42
2017-03-19T03:25:04.600Z,1000.43
2017-03-19T03:26:05.821Z,1000.4
2017-03-19T03:27:07.144Z,1000.39
2017-03-19T03:28:08.430Z,1000.4
2017-03-19T03:29:09.701Z,1000.41
2017-03-19T03:30:10.939Z,1000.36
2017-03-19T03:31:12.196Z,1000.38
2017-03-19T03:32:13.414Z,1000.37
2017-03-19T03:33:14.771Z,1000.36
2017-03-19T03:34:16.050Z,1000.34
2017-03-19T03:35:17.310Z,1000.34
2017-03-19T03:36:18.541Z,1000.32
2017-03-19T03:37:19.789Z,1000.34
2017-03-19T03:38:21.052Z,1000.34
2017-03-19T03:39:22.273Z,1000.34
2017-03-19T03:40:23.515Z,1000.32
2017-03-19T03:41:24.770Z,1000.29
2017-03-19T03:42:26.020Z,1000.27
2017-03-19T03:43:27.265Z,1000.3
2017-03-19T03:44:28.519Z,1000.23
2017-03-19T03:45:29.803Z,1000.23
2017-03-19T03:46:31.030Z,1000.2
2017-03-19T03:47:32.281Z,1000.21
2017-03-19T03:48:33.512Z,1000.23
2017-03-19T03:49:34.752Z,1000.18
2017-03-19T03:50:36.012Z,1000.22
2017-03-19T03:51:37.242Z,1000.19
2017-03-19T03:52:38.503Z,1000.18
2017-03-19T03:53:39.770Z,1000.14
2017-03-19T03:54:40.999Z,1000.09
2017-03-19T03:55:42.223Z,1000.12
2017-03-19T03:56:43.485Z,1000.12
2017-03-19T03:57:44.744Z,1000.07
2017-03-19T03:58:45.968Z,1000.01
2017-03-19T03:59:47.236Z,1000.01
2017-03-19T04:00:48.513Z,999.99
2017-03-19T04:01:49.800Z,999.96
2017-03-19T04:02:51.038Z,999.91
2017-03-19T04:03:52.260Z,999.9
2017-03-19T04:04:53.492Z,999.85
2017-03-19T04:05:54.803Z,999.89
2017-03-19T04:06:56.033Z,999.84
2017-03-19T04:07:57.268Z,999.88
2017-03-19T04:08:58.581Z,999.83
2017-03-19T04:09:59.804Z,999.83
2017-03-19T04:11:01.048Z,999.8
2017-03-19T04:12:02.349Z,999.77
2017-03-19T04:13:03.519Z,999.74
2017-03-19T04:14:04.894Z,999.74
2017-03-19T04:15:06.154Z,999.72
2017-03-19T04:16:07.375Z,999.74
2017-03-19T04:17:08.611Z,999.74
2017-03-19T04:18:09.851Z,999.72
2017-03-19T04:19:11.113Z,999.72
2017-03-19T04:20:12.380Z,999.72
2017-03-19T04:21:13.588Z,999.77
2017-03-19T04:22:14.832Z,999.74
2017-03-19T04:23:16.114Z,999.7
2017-03-19T04:24:17.386Z,999.75
2017-03-19T04:25:18.708Z,999.71
2017-03-19T04:26:19.934Z,999.72
2017-03-19T04:27:21.174Z,999.72
2017-03-19T04:28:22.412Z,999.77
2017-03-19T04:29:23.654Z,999.74
2017-03-19T04:30:24.900Z,999.72
2017-03-19T04:31:26.162Z,999.68
2017-03-19T04:32:27.370Z,999.7
2017-03-19T04:33:28.696Z,999.68
2017-03-19T04:34:29.919Z,999.66
2017-03-19T04:35:31.153Z,999.64
2017-03-19T04:36:32.385Z,999.62
2017-03-19T04:37:33.641Z,999.63
2017-03-19T04:38:34.915Z,999.61
2017-03-19T04:39:36.186Z,999.62
2017-03-19T04:40:37.436Z,999.6
2017-03-19T04:41:38.665Z,999.59
2017-03-19T04:42:39.911Z,999.57
2017-03-19T04:43:41.148Z,999.59
2017-03-19T04:44:42.441Z,999.6
2017-03-19T04:45:44.081Z,999.63
2017-03-19T04:46:45.242Z,999.54
2017-03-19T04:47:46.453Z,999.53
2017-03-19T04:48:47.687Z,999.51
2017-03-19T04:49:48.926Z,999.51
2017-03-19T04:50:50.293Z,999.49
2017-03-19T04:51:51.603Z,999.44
2017-03-19T04:52:52.781Z,999.46
2017-03-19T04:53:54.014Z,999.45
2017-03-19T04:54:55.252Z,999.47
2017-03-19T04:55:56.527Z,999.48
2017-03-19T04:56:57.761Z,999.52
2017-03-19T04:57:59.030Z,999.52
2017-03-19T04:59:00.276Z,999.54
2017-03-19T05:00:01.496Z,999.57
2017-03-19T05:01:02.724Z,999.53
2017-03-19T05:02:03.963Z,999.48
2017-03-19T05:03:05.274Z,999.48
2017-03-19T05:04:06.667Z,999.52
2017-03-19T05:05:07.962Z,999.49
2017-03-19T05:06:09.204Z,999.39
2017-03-19T05:07:10.468Z,999.4
2017-03-19T05:08:11.735Z,999.41
2017-03-19T05:09:12.977Z,999.35
2017-03-19T05:10:14.251Z,999.36
2017-03-19T05:11:15.506Z,999.36
2017-03-19T05:12:16.752Z,999.34
2017-03-19T05:13:17.987Z,999.35
2017-03-19T05:14:19.315Z,999.31
2017-03-19T05:15:20.574Z,999.34
2017-03-19T05:16:21.905Z,999.36
2017-03-19T05:17:23.156Z,999.46
2017-03-19T05:18:24.379Z,999.46
2017-03-19T05:19:25.621Z,999.43
2017-03-19T05:20:26.909Z,999.43
2017-03-19T05:21:28.156Z,999.43
2017-03-19T05:22:29.392Z,999.42
2017-03-19T05:23:30.738Z,999.36
2017-03-19T05:24:31.976Z,999.35
2017-03-19T05:25:33.241Z,999.31
2017-03-19T05:26:34.486Z,999.35
2017-03-19T05:27:35.703Z,999.32
2017-03-19T05:28:37.110Z,999.32
2017-03-19T05:29:38.355Z,999.33
2017-03-19T05:30:39.618Z,999.37
2017-03-19T05:31:40.859Z,999.33
2017-03-19T05:32:42.096Z,999.32
2017-03-19T05:33:43.346Z,999.27
2017-03-19T05:34:44.590Z,999.28
2017-03-19T05:35:45.856Z,999.29
2017-03-19T05:36:47.084Z,999.29
2017-03-19T05:37:48.324Z,999.27
2017-03-19T05:38:49.570Z,999.26
2017-03-19T05:39:50.936Z,999.25
2017-03-19T05:40:52.234Z,999.25
2017-03-19T05:41:53.501Z,999.28
2017-03-19T05:42:54.738Z,999.3
2017-03-19T05:43:55.962Z,999.32
2017-03-19T05:44:57.228Z,999.26
2017-03-19T05:45:58.535Z,999.18
2017-03-19T05:46:59.670Z,999.18
2017-03-19T05:48:01.058Z,999.16
2017-03-19T05:49:02.452Z,999.15
2017-03-19T05:50:03.713Z,999.15
2017-03-19T05:51:04.928Z,999.16
2017-03-19T05:52:06.167Z,999.16
2017-03-19T05:53:07.458Z,999.12
2017-03-19T05:54:08.795Z,999.07
2017-03-19T05:55:10.060Z,999.01
2017-03-19T05:56:11.269Z,999.02
2017-03-19T05:57:12.500Z,998.99
2017-03-19T05:58:13.768Z,999.01
2017-03-19T05:59:15.036Z,999.02
2017-03-19T06:00:16.367Z,999.04
2017-03-19T06:01:17.615Z,999.05
2017-03-19T06:02:18.888Z,999.07
2017-03-19T06:03:20.097Z,998.93
2017-03-19T06:04:21.363Z,998.99
2017-03-19T06:05:22.679Z,999.06
2017-03-19T06:06:24.002Z,999.03
2017-03-19T06:07:25.230Z,999.04
2017-03-19T06:08:26.467Z,999.03
2017-03-19T06:09:27.718Z,999.05
2017-03-19T06:10:29.082Z,999.09
2017-03-19T06:11:30.297Z,999.1
2017-03-19T06:12:31.528Z,999.08
2017-03-19T06:13:32.774Z,999.1
2017-03-19T06:14:34.049Z,999.12
2017-03-19T06:15:35.275Z,999.09
2017-03-19T06:16:36.526Z,999.07
2017-03-19T06:17:37.770Z,999.09
2017-03-19T06:18:39.029Z,999.11
2017-03-19T06:19:40.293Z,999.06
2017-03-19T06:20:41.546Z,998.97
2017-03-19T06:21:42.761Z,998.99
2017-03-19T06:22:44.036Z,998.93
2017-03-19T06:23:45.255Z,999.01
2017-03-19T06:24:46.547Z,998.96
2017-03-19T06:25:47.788Z,998.98
2017-03-19T06:26:49.023Z,998.99
2017-03-19T06:27:50.305Z,998.95
2017-03-19T06:28:51.542Z,998.91
2017-03-19T06:29:52.797Z,998.93
2017-03-19T06:30:54.032Z,998.89
2017-03-19T06:31:55.273Z,998.91
2017-03-19T06:32:56.524Z,998.87
2017-03-19T06:33:57.781Z,998.83
2017-03-19T06:34:59.004Z,998.84
2017-03-19T06:36:00.237Z,998.84
2017-03-19T06:37:01.501Z,998.86
2017-03-19T06:38:02.904Z,998.87
2017-03-19T06:39:04.183Z,998.82
2017-03-19T06:40:05.422Z,998.86
2017-03-19T06:41:06.661Z,998.83
2017-03-19T06:42:07.902Z,998.85
2017-03-19T06:43:09.203Z,998.83
2017-03-19T06:44:10.581Z,998.81
2017-03-19T06:45:11.869Z,998.8
2017-03-19T06:46:13.072Z,998.8
2017-03-19T06:47:14.307Z,998.78
2017-03-19T06:48:15.549Z,998.77
2017-03-19T06:49:16.848Z,998.74
2017-03-19T06:50:18.098Z,998.69
2017-03-19T06:51:19.350Z,998.69
2017-03-19T06:52:20.624Z,998.71
2017-03-19T06:53:21.851Z,998.65
2017-03-19T06:54:23.071Z,998.66
2017-03-19T06:55:24.317Z,998.69
2017-03-19T06:56:25.560Z,998.63
2017-03-19T06:57:26.909Z,998.63
2017-03-19T06:58:28.162Z,998.67
2017-03-19T06:59:29.399Z,998.66
2017-03-19T07:00:30.641Z,998.69
2017-03-19T07:01:31.888Z,998.71
2017-03-19T07:02:33.128Z,998.64
2017-03-19T07:03:34.385Z,998.69
2017-03-19T07:04:35.646Z,998.72
2017-03-19T07:05:36.876Z,998.63
2017-03-19T07:06:38.135Z,998.61
2017-03-19T07:07:39.371Z,998.65
2017-03-19T07:08:40.580Z,998.64
2017-03-19T07:09:41.821Z,998.6
2017-03-19T07:10:43.107Z,998.6
2017-03-19T07:11:44.347Z,998.7
2017-03-19T07:12:45.586Z,998.67
2017-03-19T07:13:46.831Z,998.62
2017-03-19T07:14:48.074Z,998.59
2017-03-19T07:15:49.337Z,998.61
2017-03-19T07:16:50.591Z,998.65
2017-03-19T07:17:51.837Z,998.56
2017-03-19T07:18:53.090Z,998.64
2017-03-19T07:19:54.344Z,998.64
2017-03-19T07:20:55.564Z,998.67
2017-03-19T07:21:56.861Z,998.63
2017-03-19T07:22:58.113Z,998.63
2017-03-19T07:23:59.337Z,998.61
2017-03-19T07:25:00.605Z,998.57
2017-03-19T07:26:01.836Z,998.61
2017-03-19T07:27:03.075Z,998.58
2017-03-19T07:28:04.325Z,998.65
2017-03-19T07:29:05.571Z,998.64
2017-03-19T07:30:06.815Z,998.6
2017-03-19T07:31:08.053Z,998.65
2017-03-19T07:32:09.292Z,998.63
2017-03-19T07:33:10.529Z,998.66
2017-03-19T07:34:11.778Z,998.65
2017-03-19T07:35:13.034Z,998.57
2017-03-19T07:36:14.490Z,998.59
2017-03-19T07:37:15.767Z,998.63
2017-03-19T07:38:17.066Z,998.62
2017-03-19T07:39:18.314Z,998.6
2017-03-19T07:40:19.550Z,998.59
2017-03-19T07:41:20.794Z,998.54
2017-03-19T07:42:22.051Z,998.55
2017-03-19T07:43:23.284Z,998.52
2017-03-19T07:44:24.521Z,998.5
2017-03-19T07:45:25.752Z,998.47
2017-03-19T07:46:26.999Z,998.51
2017-03-19T07:47:28.239Z,998.5
2017-03-19T07:48:29.481Z,998.55
2017-03-19T07:49:30.737Z,998.53
2017-03-19T07:50:32.121Z,998.54
2017-03-19T07:51:33.354Z,998.48
2017-03-19T07:52:34.638Z,998.49
2017-03-19T07:53:35.852Z,998.56
2017-03-19T07:54:37.117Z,998.47
2017-03-19T07:55:38.551Z,998.46
2017-03-19T07:56:39.816Z,998.47
2017-03-19T07:57:41.066Z,998.51
2017-03-19T07:58:42.288Z,998.48
2017-03-19T07:59:43.639Z,998.53
2017-03-19T08:00:44.931Z,998.52
2017-03-19T08:01:46.232Z,998.49
2017-03-19T08:02:47.483Z,998.49
2017-03-19T08:03:48.716Z,998.49
2017-03-19T08:04:49.964Z,998.53
2017-03-19T08:05:51.202Z,998.55
2017-03-19T08:06:52.483Z,998.47
2017-03-19T08:07:53.740Z,998.51
2017-03-19T08:08:54.994Z,998.54
2017-03-19T08:09:56.229Z,998.5
2017-03-19T08:10:57.469Z,998.54
2017-03-19T08:11:58.757Z,998.5
2017-03-19T08:13:00.002Z,998.5
2017-03-19T08:14:01.269Z,998.53
2017-03-19T08:15:02.509Z,998.58
2017-03-19T08:16:03.767Z,998.54
2017-03-19T08:17:05.008Z,998.57
2017-03-19T08:18:06.274Z,998.62
2017-03-19T08:19:07.615Z,998.55
2017-03-19T08:20:08.989Z,998.55
2017-03-19T08:21:10.321Z,998.54
2017-03-19T08:22:11.540Z,998.53
2017-03-19T08:23:12.781Z,998.47
2017-03-19T08:24:14.018Z,998.52
2017-03-19T08:25:15.356Z,998.51
2017-03-19T08:26:16.601Z,998.5
2017-03-19T08:27:17.882Z,998.54
2017-03-19T08:28:19.100Z,998.6
2017-03-19T08:29:20.355Z,998.49
2017-03-19T08:30:21.615Z,998.54
2017-03-19T08:31:22.942Z,998.45
2017-03-19T08:32:24.293Z,998.56
2017-03-19T08:33:25.524Z,998.51
2017-03-19T08:34:26.766Z,998.53
2017-03-19T08:35:28.041Z,998.52
2017-03-19T08:36:29.289Z,998.48
2017-03-19T08:37:30.564Z,998.55
2017-03-19T08:38:31.827Z,998.52
2017-03-19T08:39:33.087Z,998.41
2017-03-19T08:40:34.315Z,998.57
2017-03-19T08:41:35.549Z,998.56
2017-03-19T08:42:36.814Z,998.48
2017-03-19T08:43:38.053Z,998.58
2017-03-19T08:44:39.345Z,998.6
2017-03-19T08:45:40.618Z,998.6
2017-03-19T08:46:41.851Z,998.64
2017-03-19T08:47:43.081Z,998.55
2017-03-19T08:48:44.334Z,998.6
2017-03-19T08:49:45.569Z,998.64
2017-03-19T08:50:46.880Z,998.58
2017-03-19T08:51:48.128Z,998.57
2017-03-19T08:52:49.377Z,998.6
2017-03-19T08:53:50.614Z,998.45
2017-03-19T08:54:51.874Z,998.47
2017-03-19T08:55:53.130Z,998.54
2017-03-19T08:56:54.439Z,998.51
2017-03-19T08:57:55.719Z,998.45
2017-03-19T08:58:56.914Z,998.45
2017-03-19T08:59:58.191Z,998.5
2017-03-19T09:00:59.438Z,998.47
2017-03-19T09:02:00.690Z,998.44
2017-03-19T09:03:01.928Z,998.48
2017-03-19T09:04:03.233Z,998.63
2017-03-19T09:05:04.508Z,998.46
2017-03-19T09:06:05.776Z,998.58
2017-03-19T09:07:07.045Z,998.51
2017-03-19T09:08:08.372Z,998.46
2017-03-19T09:09:09.604Z,998.57
2017-03-19T09:10:11.032Z,998.58
2017-03-19T09:11:12.272Z,998.57
2017-03-19T09:12:13.529Z,998.51
2017-03-19T09:13:14.770Z,998.55
2017-03-19T09:14:16.024Z,998.49
2017-03-19T09:15:17.280Z,998.51
2017-03-19T09:16:18.531Z,998.55
2017-03-19T09:17:19.777Z,998.49
2017-03-19T09:18:21.029Z,998.53
2017-03-19T09:19:22.305Z,998.52
2017-03-19T09:20:23.563Z,998.5
2017-03-19T09:21:24.962Z,998.47
2017-03-19T09:22:26.223Z,998.5
2017-03-19T09:23:27.458Z,998.49
2017-03-19T09:24:28.709Z,998.53
2017-03-19T09:25:29.970Z,998.48
2017-03-19T09:26:31.221Z,998.62
2017-03-19T09:27:32.478Z,998.61
2017-03-19T09:28:33.737Z,998.61
2017-03-19T09:29:34.998Z,998.55
2017-03-19T09:30:36.239Z,998.47
2017-03-19T09:31:37.506Z,998.56
2017-03-19T09:32:38.727Z,998.61
2017-03-19T09:33:39.968Z,998.59
2017-03-19T09:34:41.293Z,998.63
2017-03-19T09:35:42.660Z,998.68
2017-03-19T09:36:43.895Z,998.61
2017-03-19T09:37:45.129Z,998.66
2017-03-19T09:38:46.371Z,998.65
2017-03-19T09:39:47.618Z,998.67
2017-03-19T09:40:48.901Z,998.72
2017-03-19T09:41:50.147Z,998.7
2017-03-19T09:42:51.405Z,998.65
2017-03-19T09:43:52.645Z,998.65
2017-03-19T09:44:53.858Z,998.64
2017-03-19T09:45:55.127Z,998.73
2017-03-19T09:46:56.398Z,998.66
2017-03-19T09:47:57.676Z,998.7
2017-03-19T09:48:58.879Z,998.67
2017-03-19T09:50:00.152Z,998.64
2017-03-19T09:51:01.398Z,998.62
2017-03-19T09:52:02.755Z,998.52
2017-03-19T09:53:03.919Z,998.56
2017-03-19T09:54:05.278Z,998.6
2017-03-19T09:55:06.504Z,998.57
2017-03-19T09:56:07.742Z,998.56
2017-03-19T09:57:08.982Z,998.63
2017-03-19T09:58:10.242Z,998.6
2017-03-19T09:59:11.464Z,998.62
2017-03-19T10:00:12.792Z,998.53
2017-03-19T10:01:14.043Z,998.57
2017-03-19T10:02:15.289Z,998.63
2017-03-19T10:03:16.532Z,998.56
2017-03-19T10:04:17.779Z,998.51
2017-03-19T10:05:19.064Z,998.56
2017-03-19T10:06:20.330Z,998.52
2017-03-19T10:07:21.568Z,998.46
2017-03-19T10:08:22.819Z,998.46
2017-03-19T10:09:24.056Z,998.45
2017-03-19T10:10:25.291Z,998.36
2017-03-19T10:11:26.667Z,998.38
2017-03-19T10:12:27.791Z,998.33
2017-03-19T10:13:29.132Z,998.35
2017-03-19T10:14:30.377Z,998.31
2017-03-19T10:15:31.627Z,998.27
2017-03-19T10:16:32.879Z,998.24
2017-03-19T10:17:34.116Z,998.22
2017-03-19T10:18:35.417Z,998.2
2017-03-19T10:19:36.684Z,998.21
2017-03-19T10:20:37.942Z,998.27
2017-03-19T10:21:39.194Z,998.22
2017-03-19T10:22:40.447Z,998.24
2017-03-19T10:23:41.690Z,998.26
2017-03-19T10:24:43.009Z,998.17
2017-03-19T10:25:44.261Z,998.23
2017-03-19T10:26:45.507Z,998.3
2017-03-19T10:27:46.774Z,998.34
2017-03-19T10:28:48.040Z,998.29
2017-03-19T10:29:49.375Z,998.3
2017-03-19T10:30:50.664Z,998.28
2017-03-19T10:31:51.976Z,998.28
2017-03-19T10:32:53.208Z,998.31
2017-03-19T10:33:54.533Z,998.19
2017-03-19T10:34:55.794Z,998.31
2017-03-19T10:35:57.011Z,998.26
2017-03-19T10:36:58.356Z,998.25
2017-03-19T10:37:59.509Z,998.29
2017-03-19T10:39:00.766Z,998.23
2017-03-19T10:40:01.987Z,998.32
2017-03-19T10:41:03.247Z,998.28
2017-03-19T10:42:04.488Z,998.3
2017-03-19T10:43:05.743Z,998.31
2017-03-19T10:44:07.055Z,998.35
2017-03-19T10:45:08.281Z,998.3
2017-03-19T10:46:09.555Z,998.29
2017-03-19T10:47:10.808Z,998.25
2017-03-19T10:48:12.041Z,998.26
2017-03-19T10:49:13.280Z,998.32
2017-03-19T10:50:14.548Z,998.25
2017-03-19T10:51:15.786Z,998.3
2017-03-19T10:52:17.029Z,998.34
2017-03-19T10:53:18.240Z,998.34
2017-03-19T10:54:19.502Z,998.29
2017-03-19T10:55:20.751Z,998.35
2017-03-19T10:56:21.962Z,998.34
2017-03-19T10:57:23.289Z,998.34
2017-03-19T10:58:24.542Z,998.4
2017-03-19T10:59:25.789Z,998.31
2017-03-19T11:00:27.044Z,998.29
2017-03-19T11:01:28.306Z,998.26
2017-03-19T11:02:29.539Z,998.34
2017-03-19T11:03:30.930Z,998.29
2017-03-19T11:04:32.176Z,998.31
2017-03-19T11:05:33.406Z,998.42
2017-03-19T11:06:34.666Z,998.3
2017-03-19T11:07:35.892Z,998.25
2017-03-19T11:08:37.124Z,998.25
2017-03-19T11:09:38.414Z,998.23
2017-03-19T11:10:39.632Z,998.27
2017-03-19T11:11:40.861Z,998.19
2017-03-19T11:12:42.106Z,998.2
2017-03-19T11:13:43.341Z,998.26
2017-03-19T11:14:44.617Z,998.29
2017-03-19T11:15:45.861Z,998.24
2017-03-19T11:16:47.266Z,998.24
2017-03-19T11:17:48.528Z,998.27
2017-03-19T11:18:49.788Z,998.22
2017-03-19T11:19:51.033Z,998.24
2017-03-19T11:20:52.275Z,998.18
2017-03-19T11:21:53.533Z,998.05
2017-03-19T11:22:54.848Z,998.16
2017-03-19T11:23:56.111Z,998.06
2017-03-19T11:24:57.402Z,997.99
2017-03-19T11:25:58.655Z,997.92
2017-03-19T11:26:59.924Z,997.79
2017-03-19T11:28:01.137Z,997.85
2017-03-19T11:29:02.390Z,997.94
2017-03-19T11:30:03.728Z,997.89
2017-03-19T11:31:04.975Z,998
2017-03-19T11:32:06.226Z,998.01
2017-03-19T11:33:07.495Z,998.07
2017-03-19T11:34:08.726Z,998.09
2017-03-19T11:35:09.999Z,998.07
2017-03-19T11:36:11.317Z,998.02
2017-03-19T11:37:12.534Z,998
2017-03-19T11:38:13.771Z,998.18
2017-03-19T11:39:15.008Z,998.13
2017-03-19T11:40:16.292Z,997.99
2017-03-19T11:41:17.516Z,998.13
2017-03-19T11:42:18.777Z,998.16
2017-03-19T11:43:20.108Z,998.16
2017-03-19T11:44:21.349Z,998.07
2017-03-19T11:45:22.587Z,998.08
2017-03-19T11:46:23.848Z,998
2017-03-19T11:47:25.115Z,998.08
2017-03-19T11:48:26.357Z,998.08
2017-03-19T11:49:27.602Z,998.09
2017-03-19T11:50:28.851Z,998.07
2017-03-19T11:51:30.091Z,998.1
2017-03-19T11:52:31.316Z,998.12
2017-03-19T11:53:32.559Z,998.26
2017-03-19T11:54:33.848Z,998.15
2017-03-19T11:55:35.145Z,998.12
2017-03-19T11:56:36.453Z,998.18
2017-03-19T11:57:37.705Z,998.07
2017-03-19T11:58:38.951Z,998.06
2017-03-19T11:59:40.205Z,998.07
2017-03-19T12:00:41.545Z,998.04
2017-03-19T12:01:42.846Z,998.06
2017-03-19T12:02:44.120Z,998.09
2017-03-19T12:03:45.359Z,998.17
2017-03-19T12:04:46.597Z,998.15
2017-03-19T12:05:47.816Z,998.16
2017-03-19T12:06:49.084Z,998.17
2017-03-19T12:07:50.343Z,998.09
2017-03-19T12:08:51.580Z,998.25
2017-03-19T12:09:52.802Z,998.13
2017-03-19T12:10:54.075Z,998.2
2017-03-19T12:11:55.297Z,998.23
2017-03-19T12:12:56.728Z,998.21
2017-03-19T12:13:57.871Z,998.24
2017-03-19T12:14:59.206Z,998.28
2017-03-19T12:16:00.560Z,998.29
2017-03-19T12:17:01.819Z,998.39
2017-03-19T12:18:03.041Z,998.43
2017-03-19T12:19:04.289Z,998.34
2017-03-19T12:20:05.549Z,998.38
2017-03-19T12:21:06.809Z,998.34
2017-03-19T12:22:08.038Z,998.3
2017-03-19T12:23:09.285Z,998.35
2017-03-19T12:24:10.523Z,998.4
2017-03-19T12:25:11.861Z,998.35
2017-03-19T12:26:13.090Z,998.36
2017-03-19T12:27:14.360Z,998.28
2017-03-19T12:28:15.617Z,998.21
2017-03-19T12:29:16.843Z,998.25
2017-03-19T12:30:18.111Z,998.26
2017-03-19T12:31:19.352Z,998.26
2017-03-19T12:32:20.605Z,998.22
2017-03-19T12:33:21.859Z,998.23
2017-03-19T12:34:23.122Z,998.19
2017-03-19T12:35:24.375Z,998.25
2017-03-19T12:36:25.630Z,998.25
2017-03-19T12:37:26.850Z,998.18
2017-03-19T12:38:28.121Z,998.1
2017-03-19T12:39:29.358Z,998.18
2017-03-19T12:40:30.592Z,998.18